Flight Track Log - Related Links

Times and Time Zones

All times are in EDT time to prevent confusion due to time zone crossing. See the JA-738J flight status page for this flight to view local times or setup timezone preferences in your user account.

Time Position Orientation Groundspeed Altitude Reporting Facility
EDT Latitude Longitude Course Direction KTS MPH feet Rate Location/Type
Thu 10:33:48 PM 35.6020 140.4930 149° Southeast 280 322 6,400  Level FlightAware ADS-B
Thu 10:34:08 PM 35.5780 140.5100 150° Southeast 283 326 7,400 2,492 Climbing FlightAware ADS-B
Thu 10:34:53 PM 35.5330 140.5570 140° Southeast 312 359 9,100 2,400 Climbing FlightAware ADS-B
Thu 10:35:13 PM 35.5250 140.5950 104° East 340 391 10,000 2,308 Climbing FlightAware ADS-B
Thu 10:35:58 PM 35.5190 140.6830 95° East 361 415 11,600 1,906 Climbing FlightAware ADS-B
Thu 10:36:38 PM 35.5140 140.7700 94° East 391 450 12,700 1,950 Climbing FlightAware ADS-B
Thu 10:37:18 PM 35.5080 140.8590 95° East 403 464 14,200 2,118 Climbing FlightAware ADS-B
Thu 10:38:03 PM 35.5010 140.9650 95° East 424 488 15,700 1,950 Climbing FlightAware ADS-B
Thu 10:38:38 PM 35.4950 141.0490 95° East 437 503 16,800 1,765 Climbing FlightAware ADS-B
Thu 10:39:28 PM 35.4700 141.1720 104° East 447 514 18,200 1,733 Climbing FlightAware ADS-B
Thu 10:40:08 PM 35.4400 141.2690 111° Southeast 463 533 19,400 1,800 Climbing FlightAware ADS-B
Thu 10:40:48 PM 35.4220 141.3730 102° East 489 563 20,600 1,765 Climbing FlightAware ADS-B
Thu 10:41:33 PM 35.4240 141.5070 89° East 505 581 21,900 1,553 Climbing FlightAware ADS-B
Thu 10:42:13 PM 35.4250 141.6160 89° East 513 590 22,800 1,341 Climbing FlightAware ADS-B
Thu 10:42:58 PM 35.4410 141.7480 82° East 534 615 23,800 1,275 Climbing FlightAware ADS-B
Thu 10:43:33 PM 35.4760 141.8460 66° East 543 625 24,500 1,425 Climbing FlightAware ADS-B
Thu 10:44:18 PM 35.5360 141.9730 60° Northeast 552 635 25,700 1,333 Climbing FlightAware ADS-B
Thu 10:45:03 PM 35.5890 142.0850 60° Northeast 561 646 26,500 1,129 Climbing FlightAware ADS-B
Thu 10:45:43 PM 35.6380 142.1900 60° Northeast 571 657 27,300 1,074 Climbing FlightAware ADS-B
Thu 10:46:38 PM 35.7160 142.3550 60° Northeast 588 677 28,200 1,011 Climbing FlightAware ADS-B
Thu 10:47:18 PM 35.7730 142.4760 60° Northeast 600 690 28,900 847 Climbing FlightAware ADS-B
Thu 10:48:03 PM 35.8380 142.6150 60° Northeast 611 703 29,400 660 Climbing FlightAware ADS-B
Thu 10:48:58 PM 35.9120 142.7740 60° Northeast 619 712 30,000 379 Climbing FlightAware ADS-B
Thu 10:49:38 PM 35.9600 142.8780 60° Northeast 619 712 30,000  Level FlightAware ADS-B
Thu 10:50:18 PM 36.0090 142.9820 60° Northeast 619 712 30,000  Level FlightAware ADS-B
Thu 10:50:58 PM 36.0580 143.0860 60° Northeast 619 712 30,000  Level FlightAware ADS-B
Thu 10:51:48 PM 36.1190 143.2170 60° Northeast 619 712 30,000  Level FlightAware ADS-B
Thu 10:52:28 PM 36.1670 143.3210 60° Northeast 619 712 30,000 19 Level FlightAware ADS-B
Thu 10:55:00 PM 36.4743 143.5931 35° Northeast  Level Estimated
Thu 10:56:00 PM 36.5954 143.7011 36° Northeast  Level Estimated
Thu 10:57:00 PM 36.7164 143.8095 36° Northeast  Level Estimated
Thu 10:58:00 PM 36.8374 143.9182 36° Northeast  Level Estimated
Thu 10:59:00 PM 36.9582 144.0272 36° Northeast  Level Estimated
Thu 11:00:00 PM 37.0789 144.1366 36° Northeast  Level Estimated
Thu 11:01:00 PM 37.1996 144.2463 36° Northeast  Level Estimated
Thu 11:02:00 PM 37.3201 144.3564 36° Northeast  Level Estimated
Thu 11:03:00 PM 37.4405 144.4668 36° Northeast  Level Estimated
Thu 11:04:00 PM 37.5609 144.5776 36° Northeast  Level Estimated
Thu 11:05:00 PM 37.6811 144.6888 36° Northeast  Level Estimated
Thu 11:06:00 PM 37.8014 144.8004 36° Northeast  Level Estimated
Thu 11:07:00 PM 37.9216 144.9125 36° Northeast  Level Estimated
Thu 11:08:00 PM 38.0417 145.0249 36° Northeast  Level Estimated
Thu 11:09:00 PM 38.1617 145.1377 36° Northeast  Level Estimated
Thu 11:10:00 PM 38.2816 145.2508 37° Northeast  Level Estimated
Thu 11:11:00 PM 38.4013 145.3643 37° Northeast  Level Estimated
Thu 11:12:00 PM 38.5210 145.4783 37° Northeast  Level Estimated
Thu 11:13:00 PM 38.6405 145.5925 37° Northeast  Level Estimated
Thu 11:14:00 PM 38.7600 145.7072 37° Northeast  Level Estimated
Thu 11:15:00 PM 38.8793 145.8223 37° Northeast  Level Estimated
Thu 11:16:00 PM 38.9985 145.9377 37° Northeast  Level Estimated
Thu 11:17:00 PM 39.1176 146.0535 37° Northeast  Level Estimated
Thu 11:18:00 PM 39.2366 146.1698 37° Northeast  Level Estimated
Thu 11:19:00 PM 39.3555 146.2864 37° Northeast  Level Estimated
Thu 11:20:00 PM 39.4742 146.4034 37° Northeast  Level Estimated
Thu 11:21:00 PM 39.5928 146.5208 37° Northeast  Level Estimated
Thu 11:22:00 PM 39.7113 146.6386 37° Northeast  Level Estimated
Thu 11:23:00 PM 39.8297 146.7568 37° Northeast  Level Estimated
Thu 11:24:00 PM 39.9480 146.8754 38° Northeast  Level Estimated
Thu 11:25:00 PM 40.0662 146.9945 38° Northeast  Level Estimated
Thu 11:26:00 PM 40.1842 147.1139 38° Northeast  Level Estimated
Thu 11:27:00 PM 40.3021 147.2338 38° Northeast  Level Estimated
Thu 11:28:00 PM 40.4199 147.3541 38° Northeast  Level Estimated
Thu 11:29:00 PM 40.5375 147.4748 38° Northeast  Level Estimated
Thu 11:30:00 PM 40.6551 147.5959 38° Northeast  Level Estimated
Thu 11:31:00 PM 40.7725 147.7175 38° Northeast  Level Estimated
Thu 11:32:00 PM 40.8898 147.8395 38° Northeast  Level Estimated
Thu 11:33:00 PM 41.0069 147.9619 38° Northeast  Level Estimated
Thu 11:34:00 PM 41.1239 148.0848 38° Northeast  Level Estimated
Thu 11:35:00 PM 41.2408 148.2081 38° Northeast  Level Estimated
Thu 11:36:00 PM 41.3576 148.3318 38° Northeast  Level Estimated
Thu 11:37:00 PM 41.4742 148.4560 39° Northeast  Level Estimated
Thu 11:38:00 PM 41.5907 148.5806 39° Northeast  Level Estimated
Thu 11:39:00 PM 41.7070 148.7057 39° Northeast  Level Estimated
Thu 11:40:00 PM 41.8233 148.8312 39° Northeast  Level Estimated
Thu 11:41:00 PM 41.9393 148.9572 39° Northeast  Level Estimated
Thu 11:42:00 PM 42.0553 149.0837 39° Northeast  Level Estimated
Thu 11:43:00 PM 42.1711 149.2106 39° Northeast  Level Estimated
Thu 11:44:00 PM 42.2867 149.3380 39° Northeast  Level Estimated
Thu 11:45:00 PM 42.4023 149.4658 39° Northeast  Level Estimated
Thu 11:46:00 PM 42.5176 149.5941 39° Northeast  Level Estimated
Thu 11:47:00 PM 42.6329 149.7229 39° Northeast  Level Estimated
Thu 11:48:00 PM 42.7480 149.8522 39° Northeast  Level Estimated
Thu 11:49:00 PM 42.8629 149.9819 40° Northeast  Level Estimated
Thu 11:50:00 PM 42.9777 150.1122 40° Northeast  Level Estimated
Thu 11:51:00 PM 43.0924 150.2429 40° Northeast  Level Estimated
Thu 11:52:00 PM 43.2068 150.3741 40° Northeast  Level Estimated
Thu 11:53:00 PM 43.3212 150.5058 40° Northeast  Level Estimated
Thu 11:54:00 PM 43.4354 150.6380 40° Northeast  Level Estimated
Thu 11:55:00 PM 43.5494 150.7707 40° Northeast  Level Estimated
Thu 11:56:00 PM 43.6633 150.9039 40° Northeast  Level Estimated
Thu 11:57:00 PM 43.7771 151.0376 40° Northeast  Level Estimated
Thu 11:58:00 PM 43.8906 151.1718 40° Northeast  Level Estimated
Thu 11:59:00 PM 44.0041 151.3065 40° Northeast  Level Estimated
Fri 12:00:00 AM 44.1173 151.4418 41° Northeast  Level Estimated
Fri 12:01:00 AM 44.2304 151.5776 41° Northeast  Level Estimated
Fri 12:02:00 AM 44.3434 151.7139 41° Northeast  Level Estimated
Fri 12:03:00 AM 44.4561 151.8507 41° Northeast  Level Estimated
Fri 12:04:00 AM 44.5687 151.9880 41° Northeast  Level Estimated
Fri 12:05:00 AM 44.6812 152.1259 41° Northeast  Level Estimated
Fri 12:06:00 AM 44.7935 152.2643 41° Northeast  Level Estimated
Fri 12:07:00 AM 44.9056 152.4032 41° Northeast  Level Estimated
Fri 12:08:00 AM 45.0175 152.5427 41° Northeast  Level Estimated
Fri 12:09:00 AM 45.1293 152.6828 41° Northeast  Level Estimated
Fri 12:10:00 AM 45.2409 152.8233 42° Northeast  Level Estimated
Fri 12:11:00 AM 45.3523 152.9645 42° Northeast  Level Estimated
Fri 12:12:00 AM 45.4636 153.1062 42° Northeast  Level Estimated
Fri 12:13:00 AM 45.5747 153.2484 42° Northeast  Level Estimated
Fri 12:14:00 AM 45.6856 153.3913 42° Northeast  Level Estimated
Fri 12:15:00 AM 45.7963 153.5347 42° Northeast  Level Estimated
Fri 12:16:00 AM 45.9068 153.6786 42° Northeast  Level Estimated
Fri 12:17:00 AM 46.0172 153.8232 42° Northeast  Level Estimated
Fri 12:18:00 AM 46.1274 153.9683 42° Northeast  Level Estimated
Fri 12:19:00 AM 46.2374 154.1140 42° Northeast  Level Estimated
Fri 12:20:00 AM 46.3472 154.2602 43° Northeast  Level Estimated
Fri 12:21:00 AM 46.4568 154.4071 43° Northeast  Level Estimated
Fri 12:22:00 AM 46.5662 154.5546 43° Northeast  Level Estimated
Fri 12:23:00 AM 46.6754 154.7026 43° Northeast  Level Estimated
Fri 12:24:00 AM 46.7845 154.8513 43° Northeast  Level Estimated
Fri 12:25:00 AM 46.8934 155.0005 43° Northeast  Level Estimated
Fri 12:26:00 AM 47.0020 155.1504 43° Northeast  Level Estimated
Fri 12:27:00 AM 47.1103 155.3006 43° Northeast  Level Estimated
Fri 12:28:00 AM 47.2184 155.4514 43° Northeast  Level Estimated
Fri 12:29:00 AM 47.3263 155.6029 44° Northeast  Level Estimated
Fri 12:30:00 AM 47.4340 155.7550 44° Northeast  Level Estimated
Fri 12:31:00 AM 47.5415 155.9077 44° Northeast  Level Estimated
Fri 12:32:00 AM 47.6488 156.0610 44° Northeast  Level Estimated
Fri 12:33:00 AM 47.7559 156.2150 44° Northeast  Level Estimated
Fri 12:34:00 AM 47.8628 156.3696 44° Northeast  Level Estimated
Fri 12:35:00 AM 47.9694 156.5248 44° Northeast  Level Estimated
Fri 12:36:00 AM 48.0759 156.6806 44° Northeast  Level Estimated
Fri 12:37:00 AM 48.1822 156.8372 44° Northeast  Level Estimated
Fri 12:38:00 AM 48.2882 156.9943 45° Northeast  Level Estimated
Fri 12:39:00 AM 48.3940 157.1522 45° Northeast  Level Estimated
Fri 12:39:08 AM 44.3333 163.9833 66° East 571 657 32,000  Level Oakland Oceanic (ODAPS)
Fri 12:40:00 AM 48.4996 157.3106 45° Northeast  Level Estimated
Fri 12:41:00 AM 48.6050 157.4698 45° Northeast  Level Estimated
Fri 12:42:00 AM 48.7102 157.6296 45° Northeast  Level Estimated
Fri 12:43:00 AM 48.8151 157.7901 45° Northeast  Level Estimated
Fri 12:44:00 AM 48.9198 157.9512 45° Northeast  Level Estimated
Fri 12:45:00 AM 44.7643 165.4032 67° East 571 657 32,000  Level FlightAware Transoceanic
Fri 12:45:18 AM 44.7833 165.4500 68° East 564 649 32,000  Level Oakland Oceanic (ODAPS)
Fri 12:46:00 AM 44.8244 165.6077 68° East 571 657 32,000  Level FlightAware Transoceanic
Fri 12:47:00 AM 44.8841 165.8127 68° East 571 657 32,000  Level FlightAware Transoceanic
Fri 12:48:00 AM 44.9435 166.0181 68° East 571 657 32,000  Level FlightAware Transoceanic
Fri 12:49:00 AM 45.0025 166.2239 68° East 571 657 32,000  Level FlightAware Transoceanic
Fri 12:50:00 AM 45.0612 166.4302 68° East 571 657 32,000  Level FlightAware Transoceanic
Fri 12:51:00 AM 45.1329 166.6714 68° East 564 649 32,000  Level FlightAware Transoceanic
Fri 12:52:00 AM 45.1899 166.8764 69° East 564 649 32,000  Level FlightAware Transoceanic
Fri 12:53:00 AM 45.2466 167.0818 69° East 564 649 32,000  Level FlightAware Transoceanic
Fri 12:54:00 AM 45.3028 167.2876 69° East 564 649 32,000  Level FlightAware Transoceanic
Fri 12:55:00 AM 45.3587 167.4939 69° East 564 649 32,000  Level FlightAware Transoceanic
Fri 12:56:00 AM 45.4142 167.7005 69° East 564 649 32,000  Level FlightAware Transoceanic
Fri 12:57:00 AM 45.4694 167.9075 69° East 564 649 32,000  Level FlightAware Transoceanic
Fri 12:58:00 AM 45.5242 168.1150 69° East 564 649 32,000  Level FlightAware Transoceanic
Fri 12:59:00 AM 45.5786 168.3228 70° East 564 649 32,000  Level FlightAware Transoceanic
Fri 01:00:00 AM 45.6326 168.5311 70° East 564 649 32,000  Level FlightAware Transoceanic
Fri 01:01:00 AM 45.6862 168.7397 70° East 564 649 32,000  Level FlightAware Transoceanic
Fri 01:02:00 AM 45.7395 168.9488 70° East 564 649 32,000  Level FlightAware Transoceanic
Fri 01:03:00 AM 45.7924 169.1582 70° East 564 649 32,000  Level FlightAware Transoceanic
Fri 01:04:00 AM 45.8448 169.3681 70° East 564 649 32,000  Level FlightAware Transoceanic
Fri 01:05:00 AM 45.8969 169.5783 70° East 564 649 32,000  Level FlightAware Transoceanic
Fri 01:06:00 AM 45.9487 169.7890 71° East 564 649 32,000  Level FlightAware Transoceanic
Fri 01:07:00 AM 46.0000 170.0000 70° East 564 649 32,000  Level FlightAware Transoceanic
Fri 01:07:39 AM 46.0000 170.0000 70° East 550 633 32,000  Level Oakland Oceanic (ODAPS)
Fri 01:08:00 AM 46.0493 170.1963 70° East 564 649 32,000  Level FlightAware Transoceanic
Fri 01:09:00 AM 46.0983 170.3929 70° East 564 649 32,000  Level FlightAware Transoceanic
Fri 01:10:00 AM 46.1469 170.5898 70° East 564 649 32,000  Level FlightAware Transoceanic
Fri 01:11:00 AM 46.1953 170.7871 71° East 564 649 32,000  Level FlightAware Transoceanic
Fri 01:11:59 AM 46.2333 170.9333 71° East 547 629 32,000  Level Oakland Oceanic (ODAPS)
Fri 01:12:00 AM 46.2432 170.9848 71° East 564 649 32,000  Level FlightAware Transoceanic
Fri 01:13:00 AM 46.3029 171.2334 71° East 550 633 32,000  Level FlightAware Transoceanic
Fri 01:14:00 AM 46.3521 171.4403 71° East 550 633 32,000  Level FlightAware Transoceanic
Fri 01:15:00 AM 46.4010 171.6475 71° East 550 633 32,000  Level FlightAware Transoceanic
Fri 01:16:00 AM 46.4494 171.8551 71° East 550 633 32,000  Level FlightAware Transoceanic
Fri 01:17:00 AM 46.4975 172.0631 72° East 550 633 32,000  Level FlightAware Transoceanic
Fri 01:18:00 AM 46.5289 172.1905 72° East 547 629 32,000  Level FlightAware Transoceanic
Fri 01:19:00 AM 46.5768 172.4013 72° East 547 629 32,000  Level FlightAware Transoceanic
Fri 01:20:00 AM 46.6243 172.6125 72° East 547 629 32,000  Level FlightAware Transoceanic
Fri 01:21:00 AM 46.6714 172.8241 72° East 547 629 32,000  Level FlightAware Transoceanic
Fri 01:22:00 AM 46.7182 173.0361 72° East 547 629 32,000  Level FlightAware Transoceanic
Fri 01:23:00 AM 46.7645 173.2484 72° East 547 629 32,000  Level FlightAware Transoceanic
Fri 01:24:00 AM 46.8105 173.4611 73° East 547 629 32,000  Level FlightAware Transoceanic
Fri 01:25:00 AM 46.8560 173.6741 73° East 547 629 32,000  Level FlightAware Transoceanic
Fri 01:26:00 AM 46.9012 173.8875 73° East 547 629 32,000  Level FlightAware Transoceanic
Fri 01:27:00 AM 46.9460 174.1013 73° East 547 629 32,000  Level FlightAware Transoceanic
Fri 01:28:00 AM 46.9903 174.3154 73° East 547 629 32,000  Level FlightAware Transoceanic
Fri 01:29:00 AM 47.0343 174.5299 73° East 547 629 32,000  Level FlightAware Transoceanic
Fri 01:30:00 AM 47.0779 174.7447 74° East 547 629 32,000  Level FlightAware Transoceanic
Fri 01:31:00 AM 47.1210 174.9599 74° East 547 629 32,000  Level FlightAware Transoceanic
Fri 01:32:00 AM 47.1638 175.1754 74° East 547 629 32,000  Level FlightAware Transoceanic
Fri 01:33:00 AM 47.2062 175.3913 74° East 547 629 32,000  Level FlightAware Transoceanic
Fri 01:34:00 AM 47.2481 175.6075 74° East 547 629 32,000  Level FlightAware Transoceanic
Fri 01:35:00 AM 47.2896 175.8240 74° East 547 629 32,000 -2,055 Level FlightAware Transoceanic
Fri 01:35:13 AM 47.2333 175.5500 74° East 517 595 29,500  Descending Oakland Oceanic (ODAPS)
Fri 01:36:00 AM 47.3308 176.0409 74° East 547 629 32,000 1,402 Climbing FlightAware Transoceanic
Fri 01:37:00 AM 47.3715 176.2581 75° East 547 629 32,000  Level FlightAware Transoceanic
Fri 01:38:00 AM 47.4118 176.4757 75° East 547 629 32,000  Level FlightAware Transoceanic
Fri 01:38:40 AM 47.3667 176.2833 74° East 517 595 32,000  Level Oakland Oceanic (ODAPS)
Fri 01:39:00 AM 47.4517 176.6936 75° East 547 629 32,000  Level FlightAware Transoceanic
Fri 01:40:00 AM 47.4912 176.9118 75° East 547 629 32,000 -1,250 Level FlightAware Transoceanic
Fri 01:41:00 AM 47.4699 176.8080 75° East 517 595 29,500 -1,250 Descending FlightAware Transoceanic
Fri 01:42:00 AM 47.5079 177.0187 75° East 517 595 29,500  Level FlightAware Transoceanic
Fri 01:43:00 AM 47.5457 177.2297 75° East 517 595 29,500 1,250 Level FlightAware Transoceanic
Fri 01:44:00 AM 47.5546 177.3066 75° East 517 595 32,000 1,250 Climbing FlightAware Transoceanic
Fri 01:45:00 AM 47.5911 177.5121 75° East 517 595 32,000  Level FlightAware Transoceanic
Fri 01:46:00 AM 47.6272 177.7179 75° East 517 595 32,000  Level FlightAware Transoceanic
Fri 01:47:00 AM 47.6629 177.9240 76° East 517 595 32,000  Level FlightAware Transoceanic
Fri 01:48:00 AM 47.6983 178.1304 76° East 517 595 32,000  Level FlightAware Transoceanic
Fri 01:49:00 AM 47.7333 178.3370 76° East 517 595 32,000  Level FlightAware Transoceanic
Fri 01:50:00 AM 47.7680 178.5440 76° East 517 595 32,000  Level FlightAware Transoceanic
Fri 01:51:00 AM 47.8023 178.7512 76° East 517 595 32,000  Level FlightAware Transoceanic
Fri 01:52:00 AM 47.8362 178.9586 76° East 517 595 32,000  Level FlightAware Transoceanic
Fri 01:53:00 AM 47.8697 179.1664 77° East 517 595 32,000  Level FlightAware Transoceanic
Fri 01:54:00 AM 47.9028 179.3744 77° East 517 595 32,000  Level FlightAware Transoceanic
Fri 01:55:00 AM 47.9356 179.5827 77° East 517 595 32,000  Level FlightAware Transoceanic
Fri 01:56:00 AM 47.9680 179.7912 77° East 517 595 32,000  Level FlightAware Transoceanic
Fri 01:57:00 AM 48.0000 -180.0000 78° East 517 595 32,000  Level FlightAware Transoceanic
Fri 01:57:23 AM 48.0000 180.0000 78° East 495 570 32,000  Level Oakland Oceanic (ODAPS)
Fri 01:58:00 AM 48.0296 -179.7962 78° East 517 595 32,000  Level FlightAware Transoceanic
Fri 01:59:00 AM 48.0588 -179.5921 78° East 517 595 32,000  Level FlightAware Transoceanic
Fri 02:00:00 AM 48.0876 -179.3879 78° East 517 595 32,000  Level FlightAware Transoceanic
Fri 02:01:00 AM 48.1161 -179.1834 78° East 517 595 32,000  Level FlightAware Transoceanic
Fri 02:02:00 AM 48.1442 -178.9787 78° East 517 595 32,000  Level FlightAware Transoceanic
Fri 02:03:00 AM 48.1686 -178.7988 79° East 495 570 32,000  Level FlightAware Transoceanic
Fri 02:04:00 AM 48.1954 -178.5979 79° East 495 570 32,000  Level FlightAware Transoceanic
Fri 02:05:00 AM 48.2220 -178.3967 79° East 495 570 32,000  Level FlightAware Transoceanic
Fri 02:05:22 AM 48.2167 -178.4667 79° East 491 565 32,000  Level Oakland Oceanic (ODAPS)
Fri 02:06:00 AM 48.2481 -178.1953 79° East 495 570 32,000  Level FlightAware Transoceanic
Fri 02:07:00 AM 48.2739 -177.9938 79° East 495 570 32,000  Level FlightAware Transoceanic
Fri 02:08:00 AM 48.2994 -177.7920 79° East 495 570 32,000  Level FlightAware Transoceanic
Fri 02:09:00 AM 48.3245 -177.5900 79° East 495 570 32,000  Level FlightAware Transoceanic
Fri 02:10:00 AM 48.3493 -177.3878 80° East 495 570 32,000  Level FlightAware Transoceanic
Fri 02:11:00 AM 48.3663 -177.2746 80° East 491 565 32,000  Level FlightAware Transoceanic
Fri 02:12:00 AM 48.3900 -177.0753 80° East 491 565 32,000  Level FlightAware Transoceanic
Fri 02:13:00 AM 48.4134 -176.8758 80° East 491 565 32,000  Level FlightAware Transoceanic
Fri 02:14:00 AM 48.4365 -176.6761 80° East 491 565 32,000  Level FlightAware Transoceanic
Fri 02:15:00 AM 48.4592 -176.4762 80° East 491 565 32,000  Level FlightAware Transoceanic
Fri 02:16:00 AM 48.4816 -176.2761 81° East 491 565 32,000  Level FlightAware Transoceanic
Fri 02:17:00 AM 48.5036 -176.0759 81° East 491 565 32,000  Level FlightAware Transoceanic
Fri 02:18:00 AM 48.5252 -175.8754 81° East 491 565 32,000  Level FlightAware Transoceanic
Fri 02:19:00 AM 48.5466 -175.6749 81° East 491 565 32,000  Level FlightAware Transoceanic
Fri 02:20:00 AM 48.5675 -175.4741 81° East 491 565 32,000  Level FlightAware Transoceanic
Fri 02:21:00 AM 48.5881 -175.2732 81° East 491 565 32,000  Level FlightAware Transoceanic
Fri 02:22:00 AM 48.6084 -175.0721 81° East 491 565 32,000  Level FlightAware Transoceanic
Fri 02:23:00 AM 48.6283 -174.8709 82° East 491 565 32,000  Level FlightAware Transoceanic
Fri 02:24:00 AM 48.6479 -174.6695 82° East 491 565 32,000  Level FlightAware Transoceanic
Fri 02:25:00 AM 48.6671 -174.4679 82° East 491 565 32,000  Level FlightAware Transoceanic
Fri 02:26:00 AM 48.6860 -174.2662 82° East 491 565 32,000  Level FlightAware Transoceanic
Fri 02:27:00 AM 48.7045 -174.0644 82° East 491 565 32,000  Level FlightAware Transoceanic
Fri 02:28:00 AM 48.7226 -173.8624 82° East 491 565 32,000  Level FlightAware Transoceanic
Fri 02:29:00 AM 48.7404 -173.6602 82° East 491 565 32,000  Level FlightAware Transoceanic
Fri 02:30:00 AM 48.7579 -173.4579 83° East 491 565 32,000  Level FlightAware Transoceanic
Fri 02:31:00 AM 48.7750 -173.2555 83° East 491 565 32,000  Level FlightAware Transoceanic
Fri 02:32:00 AM 48.7917 -173.0529 83° East 491 565 32,000  Level FlightAware Transoceanic
Fri 02:32:01 AM 48.7833 -173.0500 83° East 505 581 32,000  Level Oakland Oceanic (ODAPS)
Fri 02:33:00 AM 48.8081 -172.8503 83° East 491 565 32,000  Level FlightAware Transoceanic
Fri 02:34:00 AM 48.8241 -172.6474 83° East 491 565 32,000  Level FlightAware Transoceanic
Fri 02:35:00 AM 48.8398 -172.4445 83° East 491 565 32,000  Level FlightAware Transoceanic
Fri 02:36:00 AM 48.8551 -172.2414 84° East 491 565 32,000  Level FlightAware Transoceanic
Fri 02:37:00 AM 48.8701 -172.0382 84° East 491 565 32,000  Level FlightAware Transoceanic
Fri 02:38:00 AM 48.8860 -171.7461 84° East 505 581 32,000  Level FlightAware Transoceanic
Fri 02:39:00 AM 48.9017 -171.5283 84° East 505 581 32,000  Level FlightAware Transoceanic
Fri 02:40:00 AM 48.9170 -171.3103 84° East 505 581 32,000  Level FlightAware Transoceanic
Fri 02:41:00 AM 48.9319 -171.0923 84° East 505 581 32,000  Level FlightAware Transoceanic
Fri 02:42:00 AM 48.9463 -170.8741 84° East 505 581 32,000  Level FlightAware Transoceanic
Fri 02:43:00 AM 48.9604 -170.6557 84° East 505 581 32,000  Level FlightAware Transoceanic
Fri 02:44:00 AM 48.9740 -170.4373 85° East 505 581 32,000  Level FlightAware Transoceanic
Fri 02:45:00 AM 48.9872 -170.2187 85° East 505 581 32,000  Level FlightAware Transoceanic
Fri 02:46:00 AM 49.0000 -170.0000 77° East 505 581 32,000  Level FlightAware Transoceanic
Fri 02:46:30 AM 49.0000 -170.0000 77° East 522 601 32,000  Level Oakland Oceanic (ODAPS)
Fri 02:47:00 AM 49.0322 -169.7778 78° East 505 581 32,000  Level FlightAware Transoceanic
Fri 02:48:00 AM 49.0639 -169.5554 78° East 505 581 32,000  Level FlightAware Transoceanic
Fri 02:49:00 AM 49.0953 -169.3326 78° East 505 581 32,000  Level FlightAware Transoceanic
Fri 02:50:00 AM 49.1262 -169.1096 78° East 505 581 32,000  Level FlightAware Transoceanic
Fri 02:51:00 AM 49.1566 -168.8863 78° East 505 581 32,000  Level FlightAware Transoceanic
Fri 02:52:00 AM 49.1789 -168.7211 78° East 522 601 32,000  Level FlightAware Transoceanic
Fri 02:53:00 AM 49.2073 -168.5070 79° East 522 601 32,000  Level FlightAware Transoceanic
Fri 02:54:00 AM 49.2353 -168.2928 79° East 522 601 32,000  Level FlightAware Transoceanic
Fri 02:55:00 AM 49.2630 -168.0782 79° East 522 601 32,000  Level FlightAware Transoceanic
Fri 02:56:00 AM 49.2902 -167.8635 79° East 522 601 32,000  Level FlightAware Transoceanic
Fri 02:57:00 AM 49.3171 -167.6485 79° East 522 601 32,000  Level FlightAware Transoceanic
Fri 02:58:00 AM 49.3435 -167.4332 79° East 522 601 32,000  Level FlightAware Transoceanic
Fri 02:58:42 AM 49.3500 -167.4167 79° East 534 615 32,000  Level Oakland Oceanic (ODAPS)
Fri 02:59:00 AM 49.3695 -167.2178 80° East 522 601 32,000  Level FlightAware Transoceanic
Fri 03:00:00 AM 49.3952 -167.0021 80° East 522 601 32,000  Level FlightAware Transoceanic
Fri 03:01:00 AM 49.4204 -166.7862 80° East 522 601 32,000  Level FlightAware Transoceanic
Fri 03:02:00 AM 49.4453 -166.5701 80° East 522 601 32,000  Level FlightAware Transoceanic
Fri 03:03:00 AM 49.4697 -166.3537 80° East 522 601 32,000  Level FlightAware Transoceanic
Fri 03:04:00 AM 49.4826 -166.2719 80° East 534 615 32,000  Level FlightAware Transoceanic
Fri 03:05:00 AM 49.5078 -166.0422 81° East 534 615 32,000  Level FlightAware Transoceanic
Fri 03:06:00 AM 49.5325 -165.8123 81° East 534 615 32,000  Level FlightAware Transoceanic
Fri 03:07:00 AM 49.5567 -165.5822 81° East 534 615 32,000  Level FlightAware Transoceanic
Fri 03:08:00 AM 49.5805 -165.3518 81° East 534 615 32,000  Level FlightAware Transoceanic
Fri 03:09:00 AM 49.6039 -165.1212 81° East 534 615 32,000  Level FlightAware Transoceanic
Fri 03:10:00 AM 49.6268 -164.8904 81° East 534 615 32,000  Level FlightAware Transoceanic
Fri 03:11:00 AM 49.6492 -164.6593 82° East 534 615 32,000  Level FlightAware Transoceanic
Fri 03:12:00 AM 49.6711 -164.4281 82° East 534 615 32,000  Level FlightAware Transoceanic
Fri 03:13:00 AM 49.6926 -164.1967 82° East 534 615 32,000  Level FlightAware Transoceanic
Fri 03:14:00 AM 49.7137 -163.9650 82° East 534 615 32,000  Level FlightAware Transoceanic
Fri 03:15:00 AM 49.7342 -163.7332 82° East 534 615 32,000  Level FlightAware Transoceanic
Fri 03:16:00 AM 49.7543 -163.5011 82° East 534 615 32,000  Level FlightAware Transoceanic
Fri 03:17:00 AM 49.7740 -163.2689 83° East 534 615 32,000  Level FlightAware Transoceanic
Fri 03:18:00 AM 49.7932 -163.0365 83° East 534 615 32,000  Level FlightAware Transoceanic
Fri 03:19:00 AM 49.8119 -162.8038 83° East 534 615 32,000  Level FlightAware Transoceanic
Fri 03:20:00 AM 49.8302 -162.5711 83° East 534 615 32,000  Level FlightAware Transoceanic
Fri 03:21:00 AM 49.8479 -162.3381 83° East 534 615 32,000  Level FlightAware Transoceanic
Fri 03:22:00 AM 49.8652 -162.1050 84° East 534 615 32,000  Level FlightAware Transoceanic
Fri 03:23:00 AM 49.8821 -161.8717 84° East 534 615 32,000  Level FlightAware Transoceanic
Fri 03:24:00 AM 49.8985 -161.6383 84° East 534 615 32,000  Level FlightAware Transoceanic
Fri 03:25:00 AM 49.9144 -161.4047 84° East 534 615 32,000  Level FlightAware Transoceanic
Fri 03:25:22 AM 49.9000 -161.5333 84° East 546 628 32,000  Level Oakland Oceanic (ODAPS)
Fri 03:26:00 AM 49.9298 -161.1709 84° East 534 615 32,000  Level FlightAware Transoceanic
Fri 03:27:00 AM 49.9448 -160.9370 84° East 534 615 32,000  Level FlightAware Transoceanic
Fri 03:28:00 AM 49.9593 -160.7030 85° East 534 615 32,000  Level FlightAware Transoceanic
Fri 03:29:00 AM 49.9734 -160.4688 85° East 534 615 32,000  Level FlightAware Transoceanic
Fri 03:30:00 AM 49.9869 -160.2345 85° East 534 615 32,000  Level FlightAware Transoceanic
Fri 03:31:00 AM 49.9869 -160.2194 85° East 546 628 32,000  Level FlightAware Transoceanic
Fri 03:31:58 AM 50.0000 -160.0000 86° East 577 664 32,000  Level Oakland Oceanic (ODAPS)
Fri 03:32:00 AM 50.0000 -160.0000 86° East 546 628 32,000  Level FlightAware Transoceanic
Fri 03:33:00 AM 50.0110 -159.7376 86° East 546 628 32,000  Level FlightAware Transoceanic
Fri 03:34:00 AM 50.0214 -159.4750 87° East 546 628 32,000  Level FlightAware Transoceanic
Fri 03:35:00 AM 50.0312 -159.2124 87° East 546 628 32,000  Level FlightAware Transoceanic
Fri 03:36:00 AM 50.0405 -158.9496 87° East 546 628 32,000  Level FlightAware Transoceanic
Fri 03:37:00 AM 50.0491 -158.6867 87° East 546 628 32,000  Level FlightAware Transoceanic
Fri 03:38:00 AM 50.0548 -158.5027 87° East 577 664 32,000  Level FlightAware Transoceanic
Fri 03:39:00 AM 50.0621 -158.2528 88° East 577 664 32,000  Level FlightAware Transoceanic
Fri 03:40:00 AM 50.0688 -158.0029 88° East 577 664 32,000  Level FlightAware Transoceanic
Fri 03:41:00 AM 50.0750 -157.7529 88° East 577 664 32,000  Level FlightAware Transoceanic
Fri 03:42:00 AM 50.0806 -157.5028 88° East 577 664 32,000  Level FlightAware Transoceanic
Fri 03:43:00 AM 50.0857 -157.2527 88° East 577 664 32,000  Level FlightAware Transoceanic
Fri 03:44:00 AM 50.0903 -157.0025 88° East 577 664 32,000  Level FlightAware Transoceanic
Fri 03:45:00 AM 50.0943 -156.7523 89° East 577 664 32,000  Level FlightAware Transoceanic
Fri 03:46:00 AM 50.0978 -156.5020 89° East 577 664 32,000  Level FlightAware Transoceanic
Fri 03:47:00 AM 50.1008 -156.2518 89° East 577 664 32,000  Level FlightAware Transoceanic
Fri 03:48:00 AM 50.1032 -156.0014 89° East 577 664 32,000  Level FlightAware Transoceanic
Fri 03:49:00 AM 50.1051 -155.7511 89° East 577 664 32,000  Level FlightAware Transoceanic
Fri 03:50:00 AM 50.1064 -155.5007 90° East 577 664 32,000  Level FlightAware Transoceanic
Fri 03:51:00 AM 50.1073 -155.2504 90° East 577 664 32,000  Level FlightAware Transoceanic
Fri 03:52:00 AM 50.1075 -155.0000 90° East 577 664 32,000  Level FlightAware Transoceanic
Fri 03:52:02 AM 50.1000 -155.0333 90° East 615 708 32,000  Level Oakland Oceanic (ODAPS)
Fri 03:53:00 AM 50.1073 -154.7496 90° East 577 664 32,000  Level FlightAware Transoceanic
Fri 03:54:00 AM 50.1064 -154.4993 90° East 577 664 32,000  Level FlightAware Transoceanic
Fri 03:55:00 AM 50.1051 -154.2489 91° East 577 664 32,000  Level FlightAware Transoceanic
Fri 03:56:00 AM 50.1032 -153.9986 91° East 577 664 32,000  Level FlightAware Transoceanic
Fri 03:57:00 AM 50.1008 -153.7482 91° East 577 664 32,000  Level FlightAware Transoceanic
Fri 03:58:00 AM 50.0919 -153.4419 91° East 615 708 32,000  Level FlightAware Transoceanic
Fri 03:59:00 AM 50.0885 -153.1767 91° East 615 708 32,000  Level FlightAware Transoceanic
Fri 04:00:00 AM 50.0844 -152.9116 91° East 615 708 32,000  Level FlightAware Transoceanic
Fri 04:01:00 AM 50.0798 -152.6466 92° East 615 708 32,000  Level FlightAware Transoceanic
Fri 04:02:00 AM 50.0745 -152.3815 92° East 615 708 32,000  Level FlightAware Transoceanic
Fri 04:03:00 AM 50.0686 -152.1166 92° East 615 708 32,000  Level FlightAware Transoceanic
Fri 04:04:00 AM 50.0622 -151.8517 92° East 615 708 32,000  Level FlightAware Transoceanic
Fri 04:05:00 AM 50.0551 -151.5869 92° East 615 708 32,000  Level FlightAware Transoceanic
Fri 04:06:00 AM 50.0474 -151.3222 93° East 615 708 32,000  Level FlightAware Transoceanic
Fri 04:06:07 AM 50.0500 -151.3167 93° East 630 725 32,000  Level Oakland Oceanic (ODAPS)
Fri 04:07:00 AM 50.0391 -151.0575 93° East 615 708 32,000  Level FlightAware Transoceanic
Fri 04:08:00 AM 50.0303 -150.7930 93° East 615 708 32,000  Level FlightAware Transoceanic
Fri 04:08:28 AM 50.0333 -150.6833 94° East 634 730 32,000  Level Oakland Oceanic (ODAPS)
Fri 04:09:00 AM 50.0208 -150.5285 93° East 615 708 32,000  Level FlightAware Transoceanic
Fri 04:10:00 AM 50.0107 -150.2642 93° East 615 708 32,000  Level FlightAware Transoceanic
Fri 04:10:50 AM 50.0000 -150.0000 86° East 633 728 32,000  Level Oakland Oceanic (ODAPS)
Fri 04:11:00 AM 50.0000 -150.0000 86° East 615 708 32,000  Level FlightAware Transoceanic
Fri 04:12:00 AM 50.0110 -149.7376 86° East 630 725 32,000  Level FlightAware Transoceanic
Fri 04:13:00 AM 50.0214 -149.4750 87° East 630 725 32,000  Level FlightAware Transoceanic
Fri 04:14:00 AM 50.0320 -149.1911 87° East 634 730 32,000  Level FlightAware Transoceanic
Fri 04:15:00 AM 50.0414 -148.9212 87° East 634 730 32,000  Level FlightAware Transoceanic
Fri 04:16:00 AM 50.0502 -148.6512 87° East 634 730 32,000  Level FlightAware Transoceanic
Fri 04:17:00 AM 50.0597 -148.3361 87° East 633 728 32,000  Level FlightAware Transoceanic
Fri 04:18:00 AM 50.0673 -148.0584 88° East 633 728 32,000  Level FlightAware Transoceanic
Fri 04:18:43 AM 50.0667 -147.8333 88° East 634 730 32,000  Level Oakland Oceanic (ODAPS)
Fri 04:19:00 AM 50.0743 -147.7807 88° East 633 728 32,000  Level FlightAware Transoceanic
Fri 04:20:00 AM 50.0806 -147.5028 88° East 633 728 32,000  Level FlightAware Transoceanic
Fri 04:21:00 AM 50.0863 -147.2249 88° East 633 728 32,000  Level FlightAware Transoceanic
Fri 04:22:00 AM 50.0913 -146.9469 89° East 633 728 32,000  Level FlightAware Transoceanic
Fri 04:23:00 AM 50.0956 -146.6689 89° East 633 728 32,000  Level FlightAware Transoceanic
Fri 04:24:00 AM 50.0935 -146.4343 89° East 634 730 32,000  Level FlightAware Transoceanic
Fri 04:25:00 AM 50.0968 -146.1543 89° East 634 730 32,000  Level FlightAware Transoceanic
Fri 04:26:00 AM 50.0995 -145.8743 89° East 634 730 32,000  Level FlightAware Transoceanic
Fri 04:27:00 AM 50.1015 -145.5943 89° East 634 730 32,000  Level FlightAware Transoceanic
Fri 04:28:00 AM 50.1028 -145.3142 90° East 634 730 32,000  Level FlightAware Transoceanic
Fri 04:29:00 AM 50.1034 -145.0342 90° East 634 730 32,000  Level FlightAware Transoceanic
Fri 04:30:00 AM 50.1034 -144.7541 90° East 634 730 32,000  Level FlightAware Transoceanic
Fri 04:31:00 AM 50.1027 -144.4740 90° East 634 730 32,000  Level FlightAware Transoceanic
Fri 04:32:00 AM 50.1013 -144.1940 91° East 634 730 32,000  Level FlightAware Transoceanic
Fri 04:33:00 AM 50.0993 -143.9139 91° East 634 730 32,000  Level FlightAware Transoceanic
Fri 04:34:00 AM 50.0965 -143.6339 91° East 634 730 32,000  Level FlightAware Transoceanic
Fri 04:35:00 AM 50.0932 -143.3540 91° East 634 730 32,000  Level FlightAware Transoceanic
Fri 04:36:00 AM 50.0891 -143.0741 91° East 634 730 32,000  Level FlightAware Transoceanic
Fri 04:37:00 AM 50.0844 -142.7942 92° East 634 730 32,000  Level FlightAware Transoceanic
Fri 04:38:00 AM 50.0789 -142.5144 92° East 634 730 32,000  Level FlightAware Transoceanic
Fri 04:39:00 AM 50.0728 -142.2346 92° East 634 730 32,000  Level FlightAware Transoceanic
Fri 04:40:00 AM 50.0661 -141.9550 92° East 634 730 32,000  Level FlightAware Transoceanic
Fri 04:41:00 AM 50.0587 -141.6754 92° East 634 730 32,000  Level FlightAware Transoceanic
Fri 04:42:00 AM 50.0506 -141.3959 93° East 634 730 32,000  Level FlightAware Transoceanic
Fri 04:43:00 AM 50.0418 -141.1165 93° East 634 730 32,000  Level FlightAware Transoceanic
Fri 04:44:00 AM 50.0323 -140.8372 93° East 634 730 32,000  Level FlightAware Transoceanic
Fri 04:45:00 AM 50.0222 -140.5580 93° East 634 730 32,000  Level FlightAware Transoceanic
Fri 04:45:23 AM 50.0167 -140.4667 93° East 634 730 32,000  Level Oakland Oceanic (ODAPS)
Fri 04:46:00 AM 50.0115 -140.2789 94° East 634 730 32,000  Level FlightAware Transoceanic
Fri 04:47:00 AM 50.0000 -140.0000 99° East 634 730 32,000  Level FlightAware Transoceanic
Fri 04:47:16 AM 50.0000 -140.0000 99° East 617 710 32,000  Level Oakland Oceanic (ODAPS)
Fri 04:48:00 AM 49.9747 -139.7437 99° East 634 730 32,000  Level FlightAware Transoceanic
Fri 04:49:00 AM 49.9488 -139.4877 99° East 634 730 32,000  Level FlightAware Transoceanic
Fri 04:50:00 AM 49.9223 -139.2319 99° East 634 730 32,000  Level FlightAware Transoceanic
Fri 04:51:00 AM 49.8953 -138.9764 99° East 634 730 32,000  Level FlightAware Transoceanic
Fri 04:52:00 AM 49.8677 -138.7212 100° East 634 730 32,000  Level FlightAware Transoceanic
Fri 04:53:00 AM 49.8337 -138.4136 100° East 617 710 32,000  Level FlightAware Transoceanic
Fri 04:54:00 AM 49.8039 -138.1503 100° East 617 710 32,000  Level FlightAware Transoceanic
Fri 04:55:00 AM 49.7735 -137.8873 100° East 617 710 32,000  Level FlightAware Transoceanic
Fri 04:56:00 AM 49.7425 -137.6247 100° East 617 710 32,000  Level FlightAware Transoceanic
Fri 04:57:00 AM 49.7109 -137.3624 101° East 617 710 32,000  Level FlightAware Transoceanic
Fri 04:58:00 AM 49.6787 -137.1004 101° East 617 710 32,000  Level FlightAware Transoceanic
Fri 04:59:00 AM 49.6460 -136.8388 101° East 617 710 32,000  Level FlightAware Transoceanic
Fri 05:00:00 AM 49.6126 -136.5776 101° East 617 710 32,000  Level FlightAware Transoceanic
Fri 05:01:00 AM 49.5786 -136.3167 101° East 617 710 32,000  Level FlightAware Transoceanic
Fri 05:02:00 AM 49.5441 -136.0562 102° East 617 710 32,000  Level FlightAware Transoceanic
Fri 05:03:00 AM 49.5090 -135.7960 102° East 617 710 32,000  Level FlightAware Transoceanic
Fri 05:04:00 AM 49.4733 -135.5362 102° East 617 710 32,000  Level FlightAware Transoceanic
Fri 05:05:00 AM 49.4370 -135.2768 102° East 617 710 32,000  Level FlightAware Transoceanic
Fri 05:06:00 AM 49.4001 -135.0178 102° East 617 710 32,000  Level FlightAware Transoceanic
Fri 05:07:00 AM 49.3627 -134.7592 103° East 617 710 32,000  Level FlightAware Transoceanic
Fri 05:08:00 AM 49.3247 -134.5009 103° East 617 710 32,000  Level FlightAware Transoceanic
Fri 05:09:00 AM 49.2861 -134.2431 103° East 617 710 32,000  Level FlightAware Transoceanic
Fri 05:10:00 AM 49.2469 -133.9857 103° East 617 710 32,000  Level FlightAware Transoceanic
Fri 05:11:00 AM 49.2072 -133.7287 103° East 617 710 32,000  Level FlightAware Transoceanic
Fri 05:12:00 AM 49.1669 -133.4721 104° East 617 710 32,000 938 Level FlightAware Transoceanic
Fri 05:12:04 AM 49.1833 -133.5500 104° East 602 693 33,000  Climbing Oakland Oceanic (ODAPS)
Fri 05:13:00 AM 49.1260 -133.2159 104° East 617 710 32,000 -517 Descending FlightAware Transoceanic
Fri 05:14:00 AM 49.0846 -132.9602 104° East 617 710 32,000  Level FlightAware Transoceanic
Fri 05:15:00 AM 49.0426 -132.7049 104° East 617 710 32,000  Level FlightAware Transoceanic
Fri 05:16:00 AM 49.0000 -132.4500 92° East 617 710 32,000  Level FlightAware Transoceanic
Fri 05:17:00 AM 48.9943 -132.2141 92° East 617 710 32,000 500 Level FlightAware Transoceanic
Fri 05:18:00 AM 48.9881 -131.9782 92° East 602 693 33,000 500 Climbing FlightAware Transoceanic
Fri 05:19:00 AM 48.9814 -131.7425 93° East 602 693 33,000  Level FlightAware Transoceanic
Fri 05:19:26 AM 48.9667 -131.7333 93° East 590 679 33,000  Level Vancouver Center
Fri 05:20:00 AM 48.9743 -131.5067 93° East 602 693 33,000  Level FlightAware Transoceanic
Fri 05:20:26 AM 48.9667 -131.4833 90° East 590 679 33,000  Level Vancouver Center
Fri 05:21:00 AM 48.9667 -131.2711 93° East 602 693 33,000  Level FlightAware Transoceanic
Fri 05:21:26 AM 48.9500 -131.2333 96° East 590 679 33,000  Level Vancouver Center
Fri 05:22:00 AM 48.9586 -131.0355 93° East 602 693 33,000  Level FlightAware Transoceanic
Fri 05:22:26 AM 48.9500 -131.0000 90° East 580 667 33,000  Level Vancouver Center
Fri 05:23:00 AM 48.9502 -130.8054 93° East  Level FlightAware Approximate
Fri 05:23:26 AM 48.9333 -130.7333 95° East 590 679 33,000  Level Vancouver Center
Fri 05:24:00 AM 48.9414 -130.5753 93° East  Level FlightAware Approximate
Fri 05:24:26 AM 48.9333 -130.4833 90° East 590 679 33,200  Level Vancouver Center
Fri 05:25:26 AM 48.9167 -130.2500 96° East 580 667 33,900 650 Climbing Vancouver Center
Fri 05:26:26 AM 48.9167 -130.0000 90° East 580 667 34,500 500 Climbing Vancouver Center
Fri 05:27:26 AM 48.9333 -129.7667 84° East 580 667 34,900 250 Climbing Vancouver Center
Fri 05:28:26 AM 48.9333 -129.5167 90° East 580 667 35,000 50 Climbing Vancouver Center
Fri 05:29:26 AM 48.9333 -129.2667 90° East 580 667 35,000  Level Vancouver Center
Fri 05:30:26 AM 48.9167 -129.0167 96° East 580 667 35,000  Level Vancouver Center
Fri 05:36:16 AM 48.9120 -127.5880 96° East 577 664 35,000  Level FlightAware ADS-B
Fri 05:36:56 AM 48.9080 -127.4270 92° East 574 661 35,000  Level FlightAware ADS-B
Fri 05:37:36 AM 48.9040 -127.2680 92° East 571 657 35,000  Level FlightAware ADS-B
Fri 05:38:21 AM 48.8990 -127.0880 92° East 568 654 35,000  Level FlightAware ADS-B
Fri 05:39:16 AM 48.8950 -126.8740 92° East 566 651 35,000  Level FlightAware ADS-B
Fri 05:40:01 AM 48.8880 -126.6940 93° East 562 647 35,000  Level FlightAware ADS-B
Fri 05:40:41 AM 48.8830 -126.5340 93° East 559 643 35,000  Level FlightAware ADS-B
Fri 05:41:21 AM 48.8780 -126.3840 93° East 556 640 35,000  Level FlightAware ADS-B
Fri 05:42:06 AM 48.8720 -126.2090 93° East 552 635 35,000  Level FlightAware ADS-B
Fri 05:42:46 AM 48.8660 -126.0550 93° East 549 632 35,000  Level FlightAware ADS-B
Fri 05:43:31 AM 48.8600 -125.8800 93° East 548 631 35,000  Level FlightAware ADS-B
Fri 05:44:11 AM 48.8540 -125.7320 93° East 548 631 35,000  Level FlightAware ADS-B
Fri 05:44:51 AM 48.8480 -125.5750 93° East 548 631 35,000  Level FlightAware ADS-B
Fri 05:45:36 AM 48.8410 -125.4000 93° East 548 631 35,000  Level FlightAware ADS-B
Fri 05:46:16 AM 48.8340 -125.2440 94° East 548 631 35,000  Level FlightAware ADS-B
Fri 05:46:56 AM 48.8280 -125.0960 93° East 548 631 35,000  Level FlightAware ADS-B
Fri 05:47:41 AM 48.8200 -124.9190 94° East 547 629 35,000  Level FlightAware ADS-B
Fri 05:48:21 AM 48.8130 -124.7730 94° East 544 626 35,000  Level FlightAware ADS-B
Fri 05:49:06 AM 48.8040 -124.5930 94° East 543 625 35,000  Level FlightAware ADS-B
Fri 05:49:46 AM 48.7970 -124.4430 94° East 543 625 35,000  Level FlightAware ADS-B
Fri 05:50:31 AM 48.7880 -124.2710 94° East 541 623 35,000  Level FlightAware ADS-B
Fri 05:51:11 AM 48.7800 -124.1230 95° East 540 621 35,000  Level FlightAware ADS-B
Fri 05:51:51 AM 48.7720 -123.9690 94° East 540 621 35,000  Level FlightAware ADS-B
Fri 05:52:36 AM 48.7630 -123.8010 95° East 541 623 35,000  Level FlightAware ADS-B
Fri 05:53:16 AM 48.7540 -123.6520 95° East 544 626 35,000  Level FlightAware ADS-B
Fri 05:54:01 AM 48.7440 -123.4790 95° East 545 627 35,000  Level FlightAware ADS-B
Fri 05:54:41 AM 48.7350 -123.3290 95° East 545 627 35,000  Level FlightAware ADS-B
Fri 05:55:21 AM 48.7260 -123.1770 95° East 546 628 35,000  Level FlightAware ADS-B
Fri 05:56:06 AM 48.7160 -123.0050 95° East 545 627 35,000  Level FlightAware ADS-B
Fri 05:56:46 AM 48.7100 -122.8500 93° East 540 621 35,000  Level FlightAware ADS-B
Fri 05:57:31 AM 48.7060 -122.6840 92° East 539 620 35,000  Level FlightAware ADS-B
Fri 05:58:11 AM 48.7020 -122.5360 92° East 538 619 35,000  Level FlightAware ADS-B
Fri 05:58:51 AM 48.6970 -122.3850 93° East 539 620 35,000  Level FlightAware ADS-B
Fri 05:59:36 AM 48.6910 -122.2150 93° East 538 619 35,000  Level FlightAware ADS-B
Fri 06:00:16 AM 48.6860 -122.0640 93° East 538 619 35,000  Level FlightAware ADS-B
Fri 06:01:01 AM 48.6810 -121.8960 93° East 539 620 35,000  Level FlightAware ADS-B
Fri 06:01:31 AM 48.6780 -121.7920 92° East 540 621 35,000  Level FlightAware ADS-B
Fri 06:02:16 AM 48.6720 -121.6280 93° East 541 623 35,000  Level FlightAware ADS-B
Fri 06:03:06 AM 48.6650 -121.4230 93° East 540 621 35,000  Level FlightAware ADS-B
Fri 06:03:46 AM 48.6590 -121.2720 93° East 541 623 35,000  Level FlightAware ADS-B
Fri 06:04:26 AM 48.6530 -121.1180 93° East 542 624 35,000  Level FlightAware ADS-B
Fri 06:05:11 AM 48.6460 -120.9470 93° East 543 625 35,000  Level FlightAware ADS-B
Fri 06:05:51 AM 48.6400 -120.7970 93° East 542 624 35,000  Level FlightAware ADS-B
Fri 06:06:36 AM 48.6330 -120.6270 94° East 541 623 35,000  Level FlightAware ADS-B
Fri 06:07:46 AM 48.6210 -120.3630 94° East 541 623 35,000  Level FlightAware ADS-B
Fri 06:08:51 AM 48.6090 -120.1200 94° East 538 619 35,000  Level FlightAware ADS-B
Fri 06:09:26 AM 48.6030 -119.9850 94° East 539 620 35,000  Level FlightAware ADS-B
Fri 06:10:16 AM 48.5940 -119.8100 94° East 538 619 35,000  Level FlightAware ADS-B
Fri 06:11:16 AM 48.5820 -119.5770 94° East 537 618 35,000  Level FlightAware ADS-B
Fri 06:11:51 AM 48.5750 -119.4440 94° East 538 619 35,000  Level FlightAware ADS-B
Fri 06:12:36 AM 48.5660 -119.2780 95° East 536 617 35,000  Level FlightAware ADS-B
Fri 06:13:56 AM 48.5510 -119.0090 95° East 536 617 35,000  Level FlightAware ADS-B
Fri 06:14:46 AM 48.5440 -118.8500 94° East 536 617 35,000  Level FlightAware ADS-B
Fri 06:15:26 AM 48.5380 -118.7230 94° East 536 617 35,000  Level FlightAware ADS-B
Fri 06:16:06 AM 48.5320 -118.5960 94° East 536 617 35,000  Level FlightAware ADS-B
Fri 06:16:46 AM 48.5260 -118.4690 94° East 536 617 35,000  Level FlightAware ADS-B
Fri 06:17:36 AM 48.5190 -118.3100 94° East 536 617 35,000  Level FlightAware ADS-B
Fri 06:18:16 AM 48.5130 -118.1830 94° East 536 617 35,000  Level FlightAware ADS-B
Fri 06:18:56 AM 48.5070 -118.0560 94° East 536 617 35,000  Level FlightAware ADS-B
Fri 06:19:36 AM 48.5010 -117.9290 94° East 536 617 35,000  Level FlightAware ADS-B
Fri 06:20:16 AM 48.4950 -117.8020 94° East 536 617 35,000  Level FlightAware ADS-B
Fri 06:21:06 AM 48.4880 -117.6440 94° East 536 617 35,000  Level FlightAware ADS-B
Fri 06:21:46 AM 48.4820 -117.5170 94° East 536 617 35,000  Level FlightAware ADS-B
Fri 06:22:26 AM 48.4760 -117.3900 94° East 536 617 35,000  Level FlightAware ADS-B
Fri 06:23:06 AM 48.4700 -117.2630 94° East 536 617 35,000  Level FlightAware ADS-B
Fri 06:23:25 AM 48.3833 -116.8833 94° East 530 610 35,000 -122 Level Vancouver Center
Fri 06:23:55 AM 48.4008 -116.8067 71° East 527 606 34,900  Descending Seattle Center
Fri 06:24:25 AM 48.3833 -116.6500 99° East 530 610 35,000 100 Climbing Vancouver Center
Fri 06:24:55 AM 48.3847 -116.5867 88° East 528 608 35,000  Level Seattle Center
Fri 06:25:55 AM 48.3664 -116.3672 97° East 528 608 35,000 -50 Level Seattle Center
Fri 06:26:55 AM 48.3475 -116.1475 97° East 529 609 34,900 -50 Descending Seattle Center
Fri 06:27:56 AM 48.3325 -115.9475 96° East 525 604 34,900  Level Seattle Center
Fri 06:28:56 AM 48.3131 -115.7272 97° East 530 610 34,900 50 Level Seattle Center
Fri 06:29:56 AM 48.2933 -115.5100 98° East 528 608 35,000 14 Climbing Seattle Center
Fri 06:36:01 AM 48.1650 -114.1550 98° East 527 606 35,000  Level FlightAware ADS-B
Fri 06:36:41 AM 48.1500 -114.0100 99° East 531 611 35,000  Level FlightAware ADS-B
Fri 06:37:21 AM 48.1350 -113.8640 99° East 533 613 35,000  Level FlightAware ADS-B
Fri 06:38:06 AM 48.1170 -113.6970 99° East 532 612 35,000  Level FlightAware ADS-B
Fri 06:38:46 AM 48.1030 -113.5610 99° East 526 605 35,000  Level FlightAware ADS-B
Fri 06:39:31 AM 48.0850 -113.3940 99° East 520 598 35,000  Level FlightAware ADS-B
Fri 06:40:11 AM 48.0700 -113.2550 99° East 517 595 35,000  Level FlightAware ADS-B
Fri 06:40:56 AM 48.0520 -113.0910 99° East 517 595 35,000  Level FlightAware ADS-B
Fri 06:41:36 AM 48.0360 -112.9550 100° East 521 600 35,000  Level FlightAware ADS-B
Fri 06:42:16 AM 48.0200 -112.8120 99° East 519 597 35,000  Level FlightAware ADS-B
Fri 06:43:01 AM 48.0020 -112.6510 99° East 517 595 35,000  Level FlightAware ADS-B
Fri 06:43:41 AM 47.9860 -112.5170 100° East 515 593 35,000  Level FlightAware ADS-B
Fri 06:44:21 AM 47.9690 -112.3710 100° East 511 588 35,000  Level FlightAware ADS-B
Fri 06:45:06 AM 47.9550 -112.2350 99° East 511 588 35,000  Level FlightAware ADS-B
Fri 06:45:46 AM 47.9420 -112.1160 99° East 511 588 35,000  Level FlightAware ADS-B
Fri 06:46:26 AM 47.9300 -111.9980 99° East 511 588 35,000  Level FlightAware ADS-B
Fri 06:47:06 AM 47.9170 -111.8790 99° East 511 588 35,000  Level FlightAware ADS-B
Fri 06:47:56 AM 47.9010 -111.7310 99° East 511 588 35,000  Level FlightAware ADS-B
Fri 06:48:36 AM 47.8890 -111.6130 99° East 511 588 35,000  Level FlightAware ADS-B
Fri 06:49:16 AM 47.8760 -111.4940 99° East 511 588 35,000  Level FlightAware ADS-B
Fri 06:49:56 AM 47.8630 -111.3760 99° East 511 588 35,000  Level FlightAware ADS-B
Fri 06:50:36 AM 47.8510 -111.2580 99° East 511 588 35,000  Level FlightAware ADS-B
Fri 06:51:26 AM 47.8350 -111.1100 99° East 511 588 35,000  Level FlightAware ADS-B
Fri 06:52:06 AM 47.8220 -110.9920 99° East 511 588 35,000  Level FlightAware ADS-B
Fri 06:52:46 AM 47.8100 -110.8730 98° East 511 588 35,000  Level FlightAware ADS-B
Fri 06:53:26 AM 47.7970 -110.7550 99° East 511 588 35,000  Level FlightAware ADS-B
Fri 06:54:06 AM 47.7850 -110.6370 99° East 511 588 35,000 -77 Level FlightAware ADS-B
Fri 06:54:44 AM 47.6983 -110.2481 99° East 507 583 34,900 -61 Descending Salt Lake Center
Fri 06:55:44 AM 47.6692 -110.0439 102° East 507 583 34,900 50 Level Salt Lake Center
Fri 06:56:44 AM 47.6400 -109.8347 102° East 515 593 35,000 50 Climbing Salt Lake Center
Fri 06:57:45 AM 47.6136 -109.6239 100° East 521 600 35,000  Level Salt Lake Center
Fri 06:58:45 AM 47.5825 -109.4156 102° East 520 598 35,000 -50 Level Salt Lake Center
Fri 06:59:45 AM 47.5525 -109.2106 102° East 514 592 34,900 -50 Descending Salt Lake Center
Fri 07:00:45 AM 47.5219 -109.0058 102° East 511 588 34,900 50 Level Salt Lake Center
Fri 07:01:46 AM 47.4922 -108.8025 102° East 509 586 35,000 50 Climbing Salt Lake Center
Fri 07:02:46 AM 47.4614 -108.6014 103° East 505 581 35,000  Level Salt Lake Center
Fri 07:03:46 AM 47.4306 -108.4033 103° East 499 574 35,000  Level Salt Lake Center
Fri 07:04:46 AM 47.3978 -108.1933 103° East 503 579 35,000  Level Salt Lake Center
Fri 07:05:47 AM 47.3619 -107.9683 103° East 504 580 35,000  Level Salt Lake Center
Fri 07:06:47 AM 47.3314 -107.7767 103° East 503 579 35,000  Level Salt Lake Center
Fri 07:07:47 AM 47.3000 -107.5850 104° East 502 578 35,000  Level Salt Lake Center
Fri 07:08:47 AM 47.2683 -107.3956 104° East 500 575 35,000  Level Salt Lake Center
Fri 07:09:48 AM 47.2322 -107.1747 103° East 497 572 35,000  Level Salt Lake Center
Fri 07:10:48 AM 47.1989 -106.9819 104° East 503 579 35,000  Level Salt Lake Center
Fri 07:11:48 AM 47.1672 -106.7908 104° East 504 580 35,000  Level Salt Lake Center
Fri 07:12:48 AM 47.1281 -106.5672 104° East 505 581 35,000  Level Salt Lake Center
Fri 07:13:49 AM 47.0956 -106.3786 104° East 502 578 35,000  Level Salt Lake Center
Fri 07:14:49 AM 47.0622 -106.1917 105° East 500 575 35,000 -50 Level Salt Lake Center
Fri 07:15:49 AM 47.0272 -105.9969 105° East 498 573 34,900  Descending Salt Lake Center
Fri 07:16:49 AM 46.9914 -105.8014 105° East 500 575 35,000  Climbing Salt Lake Center
Fri 07:17:50 AM 46.9572 -105.6086 104° East 495 570 34,900 -50 Descending Salt Lake Center
Fri 07:18:50 AM 46.9214 -105.4175 105° East 492 566 34,900 50 Level Salt Lake Center
Fri 07:19:50 AM 46.8864 -105.2256 105° East 492 566 35,000 50 Climbing Salt Lake Center
Fri 07:20:50 AM 46.8494 -105.0344 106° East 492 566 35,000 -50 Level Salt Lake Center
Fri 07:21:51 AM 46.8139 -104.8450 105° East 490 564 34,900  Descending Salt Lake Center
Fri 07:22:51 AM 46.7783 -104.6564 105° East 487 560 35,000  Climbing Salt Lake Center
Fri 07:23:51 AM 46.7419 -104.4647 105° East 490 564 34,900 -50 Descending Salt Lake Center
Fri 07:24:51 AM 46.7044 -104.2725 106° East 494 568 34,900  Level Salt Lake Center
Fri 07:25:52 AM 46.6672 -104.0836 106° East 492 566 34,900  Level Salt Lake Center
Fri 07:26:52 AM 46.6289 -103.8917 106° East 495 570 34,900 150 Level Salt Lake Center
Fri 07:27:52 AM 46.5914 -103.7025 106° East 493 567 35,200 400 Climbing Salt Lake Center
Fri 07:28:52 AM 46.5531 -103.5119 106° East 493 567 35,700 496 Climbing Salt Lake Center
Fri 07:29:53 AM 46.5136 -103.3192 106° East 495 570 36,200 496 Climbing Salt Lake Center
Fri 07:30:53 AM 46.4744 -103.1278 106° East 497 572 36,700 538 Climbing Salt Lake Center
Fri 07:31:11 AM 46.4594 -103.0569 107° East 494 568 36,900 152 Climbing Minneapolis Center
Fri 07:32:12 AM 46.4203 -102.8667 107° East 494 568 36,900  Level Minneapolis Center
Fri 07:33:13 AM 46.3789 -102.6747 107° East 499 574 36,900 50 Level Minneapolis Center
Fri 07:34:13 AM 46.3392 -102.4864 107° East 495 570 37,000 50 Climbing Minneapolis Center
Fri 07:35:14 AM 46.2983 -102.3014 108° East 488 562 37,000  Level Minneapolis Center
Fri 07:36:15 AM 46.2583 -102.1131 107° East 490 564 37,000  Level Minneapolis Center
Fri 07:37:15 AM 46.2103 -101.8972 108° East 496 571 37,000  Level Minneapolis Center
Fri 07:38:16 AM 46.1672 -101.7069 108° East 498 573 37,000  Level Minneapolis Center
Fri 07:39:16 AM 46.1250 -101.5164 108° East 499 574 37,000  Level Minneapolis Center
Fri 07:40:17 AM 46.0850 -101.3289 107° East 493 567 37,000  Level Minneapolis Center
Fri 07:41:18 AM 46.0428 -101.1450 108° East 488 562 37,000  Level Minneapolis Center
Fri 07:42:19 AM 45.9992 -100.9636 109° East 484 557 37,000  Level Minneapolis Center
Fri 07:43:19 AM 45.9564 -100.7783 108° East 484 557 37,000  Level Minneapolis Center
Fri 07:44:20 AM 45.9128 -100.5931 109° East 486 559 37,000  Level Minneapolis Center
Fri 07:45:21 AM 45.8697 -100.4092 109° East 486 559 37,000  Level Minneapolis Center
Fri 07:46:22 AM 45.8261 -100.2231 109° East 488 562 37,000  Level Minneapolis Center
Fri 07:47:23 AM 45.7836 -100.0397 108° East 485 558 37,000  Level Minneapolis Center
Fri 07:48:23 AM 45.7389 -99.8586 109° East 482 555 37,000  Level Minneapolis Center
Fri 07:49:24 AM 45.6956 -99.6775 109° East 480 552 37,000  Level Minneapolis Center
Fri 07:50:25 AM 45.6506 -99.4953 109° East 481 554 37,000  Level Minneapolis Center
Fri 07:51:26 AM 45.6053 -99.3131 109° East 484 557 37,000  Level Minneapolis Center
Fri 07:52:27 AM 45.5603 -99.1322 110° East 483 556 37,000  Level Minneapolis Center
Fri 07:53:28 AM 45.5139 -98.9497 110° East 485 558 37,000  Level Minneapolis Center
Fri 07:54:28 AM 45.4764 -98.8025 110° East 490 564 37,000  Level Minneapolis Center
Fri 07:55:29 AM 45.4103 -98.5422 110° East 497 572 37,000  Level Minneapolis Center
Fri 07:56:30 AM 45.3619 -98.3572 110° East 498 573 37,000  Level Minneapolis Center
Fri 07:57:31 AM 45.3139 -98.1708 110° East 501 577 37,000  Level Minneapolis Center
Fri 07:58:32 AM 45.2708 -98.0061 110° East 502 578 37,000  Level Minneapolis Center
Fri 07:59:33 AM 45.2217 -97.8217 111° Southeast 501 577 37,000  Level Minneapolis Center
Fri 08:00:34 AM 45.1725 -97.6358 111° Southeast 503 579 37,000  Level Minneapolis Center
Fri 08:01:35 AM 45.1233 -97.4503 111° Southeast 504 580 37,000  Level Minneapolis Center
Fri 08:02:36 AM 45.0622 -97.2269 111° Southeast 506 582 37,000  Level Minneapolis Center
Fri 08:03:37 AM 45.0119 -97.0417 111° Southeast 505 581 37,000  Level Minneapolis Center
Fri 08:04:38 AM 44.9608 -96.8558 111° Southeast 508 585 37,000  Level Minneapolis Center
Fri 08:05:39 AM 44.9089 -96.6717 112° Southeast 505 581 37,000  Level Minneapolis Center
Fri 08:06:41 AM 44.8575 -96.4842 111° Southeast 510 587 37,000  Level Minneapolis Center
Fri 08:07:42 AM 44.8044 -96.2969 112° Southeast 514 592 37,000  Level Minneapolis Center
Fri 08:08:55 AM 44.7522 -96.1100 111° Southeast 512 589 37,000  Level Minneapolis Center
Fri 08:09:56 AM 44.6867 -95.8842 112° Southeast 516 594 37,000  Level Minneapolis Center
Fri 08:10:57 AM 44.6328 -95.6939 112° Southeast 520 598 37,000  Level Minneapolis Center
Fri 08:11:58 AM 44.5794 -95.5064 112° Southeast 516 594 37,000  Level Minneapolis Center
Fri 08:13:00 AM 44.5222 -95.3194 113° Southeast 520 598 37,000  Level Minneapolis Center
Fri 08:14:01 AM 44.4650 -95.1356 114° Southeast 515 593 37,000  Level Minneapolis Center
Fri 08:15:02 AM 44.3719 -94.9883 131° Southeast 506 582 37,000  Level Minneapolis Center
Fri 08:16:03 AM 44.2647 -94.8572 139° Southeast 508 585 37,000  Level Minneapolis Center
Fri 08:17:04 AM 44.1414 -94.6931 136° Southeast 510 587 37,000  Level Minneapolis Center
Fri 08:18:05 AM 44.0403 -94.5553 136° Southeast 510 587 37,000  Level Minneapolis Center
Fri 08:23:21 AM 43.5380 -93.7950 136° Southeast 527 606 37,000  Level FlightAware ADS-B
Fri 08:24:11 AM 43.5010 -93.6620 111° Southeast 527 606 37,000  Level FlightAware ADS-B
Fri 08:24:51 AM 43.4710 -93.5550 111° Southeast 527 606 37,000  Level FlightAware ADS-B
Fri 08:25:31 AM 43.4370 -93.3750 105° East 530 610 37,000  Level FlightAware ADS-B
Fri 08:26:16 AM 43.4040 -93.2420 109° East 530 610 37,000  Level FlightAware ADS-B
Fri 08:26:56 AM 43.3700 -93.1050 109° East 530 610 37,000  Level FlightAware ADS-B
Fri 08:27:41 AM 43.3330 -92.9570 109° East 531 611 37,000  Level FlightAware ADS-B
Fri 08:28:16 AM 43.3060 -92.8520 109° East 530 610 37,000  Level FlightAware ADS-B
Fri 08:29:16 AM 43.2570 -92.6580 109° East 528 608 37,000  Level FlightAware ADS-B
Fri 08:30:01 AM 43.2300 -92.5520 109° East 523 602 37,000 -450 Level FlightAware ADS-B
Fri 08:30:36 AM 43.1980 -92.4300 110° East 524 603 36,400 -1,200 Descending FlightAware ADS-B
Fri 08:31:16 AM 43.1660 -92.3040 109° East 519 597 35,500 -1,400 Descending FlightAware ADS-B
Fri 08:32:06 AM 43.1220 -92.1320 109° East 523 602 34,300 -1,467 Descending FlightAware ADS-B
Fri 08:32:46 AM 43.0880 -92.0040 110° East 526 605 33,300 -1,412 Descending FlightAware ADS-B
Fri 08:33:31 AM 43.0510 -91.8620 110° East 528 608 32,300 -1,129 Descending FlightAware ADS-B
Fri 08:34:11 AM 43.0190 -91.7430 110° East 520 598 31,700 -975 Descending FlightAware ADS-B
Fri 08:34:51 AM 42.9860 -91.6170 110° East 519 597 31,000 -494 Descending FlightAware ADS-B
Fri 08:35:36 AM 42.9580 -91.4660 104° East 526 605 31,000  Level FlightAware ADS-B
Fri 08:36:16 AM 42.9400 -91.3440 101° East 524 603 31,000 -71 Level FlightAware ADS-B
Fri 08:37:01 AM 42.9170 -91.1970 102° East 519 597 30,900 -706 Descending FlightAware ADS-B
Fri 08:37:41 AM 42.8980 -91.0800 102° East 517 595 30,000 -1,412 Descending FlightAware ADS-B
Fri 08:38:26 AM 42.8740 -90.9300 102° East 516 594 28,900 -1,200 Descending FlightAware ADS-B
Fri 08:39:06 AM 42.8520 -90.8000 103° East 505 581 28,300 -847 Descending FlightAware ADS-B
Fri 08:39:51 AM 42.8310 -90.6710 102° East 496 571 27,700 -900 Descending FlightAware ADS-B
Fri 08:40:26 AM 42.8120 -90.5610 103° East 490 564 27,100 -1,050 Descending FlightAware ADS-B
Fri 08:41:11 AM 42.7890 -90.4260 103° East 489 563 26,300 -1,000 Descending FlightAware ADS-B
Fri 08:41:56 AM 42.7670 -90.2920 103° East 486 559 25,600 -918 Descending FlightAware ADS-B
Fri 08:42:36 AM 42.7460 -90.1700 103° East 482 555 25,000 -825 Descending FlightAware ADS-B
Fri 08:43:16 AM 42.7260 -90.0520 103° East 478 550 24,500 -988 Descending FlightAware ADS-B
Fri 08:44:01 AM 42.7030 -89.9220 103° East 468 539 23,600 -1,553 Descending FlightAware ADS-B
Fri 08:44:41 AM 42.6840 -89.8120 103° East 458 527 22,300 -2,047 Descending FlightAware ADS-B
Fri 08:45:26 AM 42.6610 -89.6840 104° East 447 514 20,700 -1,976 Descending FlightAware ADS-B
Fri 08:46:06 AM 42.6430 -89.5820 103° East 438 504 19,500 -1,840 Descending FlightAware ADS-B
Fri 08:46:41 AM 42.6260 -89.4810 103° East 426 490 18,400 -1,482 Descending FlightAware ADS-B
Fri 08:47:31 AM 42.6050 -89.3660 104° East 416 479 17,400 -733 Descending FlightAware ADS-B
Fri 08:48:11 AM 42.5860 -89.2620 104° East 416 479 17,300 -71 Descending FlightAware ADS-B
Fri 08:48:56 AM 42.5650 -89.1470 104° East 414 476 17,300  Level FlightAware ADS-B
Fri 08:49:31 AM 42.5440 -89.0590 108° East 412 474 17,300 -675 Level FlightAware ADS-B
Fri 08:50:16 AM 42.5120 -88.9500 112° Southeast 402 463 16,400 -1,533 Descending FlightAware ADS-B
Fri 08:51:01 AM 42.4810 -88.8480 112° Southeast 389 448 15,000 -1,906 Descending FlightAware ADS-B
Fri 08:51:41 AM 42.4540 -88.7590 112° Southeast 381 438 13,700 -1,976 Descending FlightAware ADS-B
Fri 08:52:26 AM 42.4240 -88.6600 112° Southeast 373 429 12,200 -1,976 Descending FlightAware ADS-B
Fri 08:53:06 AM 42.3990 -88.5780 112° Southeast 366 421 10,900 -1,425 Descending FlightAware ADS-B
Fri 08:53:46 AM 42.3720 -88.4900 113° Southeast 356 410 10,300 -424 Descending FlightAware ADS-B
Fri 08:54:31 AM 42.3430 -88.3990 113° Southeast 354 407 10,300  Level FlightAware ADS-B
Fri 08:55:11 AM 42.3050 -88.3280 126° Southeast 354 407 10,300  Level FlightAware ADS-B
Fri 08:55:51 AM 42.2640 -88.2600 129° Southeast 354 407 10,300  Level FlightAware ADS-B
Fri 08:56:31 AM 42.2210 -88.1890 129° Southeast 344 396 10,300  Level FlightAware ADS-B
Fri 08:57:16 AM 42.1740 -88.1370 141° Southeast 298 343 10,300 -480 Level FlightAware ADS-B
Fri 08:57:46 AM 42.1330 -88.1150 158° South 290 334 9,700 -1,091 Descending FlightAware ADS-B
Fri 08:58:11 AM 42.1060 -88.1010 159° South 287 330 9,300 -1,200 Descending FlightAware ADS-B
Fri 08:58:21 AM 42.0890 -88.0920 159° South 284 327 9,000 -1,200 Descending FlightAware ADS-B
Fri 08:58:51 AM 42.0550 -88.0750 160° South 280 322 8,500 -1,100 Descending FlightAware ADS-B
Fri 08:59:21 AM 42.0180 -88.0570 160° South 275 316 7,900 -1,333 Descending FlightAware ADS-B
Fri 08:59:36 AM 42.0010 -88.0440 150° Southeast 278 320 7,500 -1,200 Descending FlightAware ADS-B
Fri 08:59:51 AM 41.9870 -88.0270 138° Southeast 282 325 7,300 -343 Descending FlightAware ADS-B
Fri 09:00:11 AM 41.9710 -87.9950 124° Southeast 287 330 7,300  Level FlightAware ADS-B
Fri 09:00:46 AM 41.9490 -87.9460 121° Southeast 287 330 7,300  Level FlightAware ADS-B
Fri 09:01:16 AM 41.9290 -87.9000 120° Southeast 289 333 7,300  Level FlightAware ADS-B
Fri 09:01:41 AM 41.9120 -87.8570 118° Southeast 291 335 7,300  Level FlightAware ADS-B
Fri 09:02:11 AM 41.8970 -87.8110 114° Southeast 288 331 7,300  Level FlightAware ADS-B
Fri 09:02:31 AM 41.8890 -87.7710 105° East 292 336 7,300 -764 Level FlightAware ADS-B
Fri 09:03:06 AM 41.8910 -87.7090 87° East 290 334 6,600 -1,200 Descending FlightAware ADS-B
Fri 09:03:36 AM 41.8930 -87.6560 87° East 283 326 6,000 -1,200 Descending FlightAware ADS-B
Fri 09:04:01 AM 41.8950 -87.6100 87° East 283 326 5,500 -764 Descending FlightAware ADS-B
Fri 09:04:31 AM 41.8980 -87.5580 86° East 285 328 5,300 -171 Descending FlightAware ADS-B
Fri 09:05:11 AM 41.8970 -87.4880 91° East 283 326 5,300  Level FlightAware ADS-B
Fri 09:05:41 AM 41.8930 -87.4370 96° East 285 328 5,300  Level FlightAware ADS-B
Fri 09:06:21 AM 41.9000 -87.3730 82° East 286 329 5,300  Level FlightAware ADS-B
Fri 09:06:36 AM 41.9130 -87.3550 46° Northeast 284 327 5,300  Level FlightAware ADS-B
Fri 09:06:51 AM 41.9320 -87.3470 17° North 274 315 5,300  Level FlightAware ADS-B
Fri 09:07:21 AM 41.9660 -87.3710 332° Northwest 248 285 5,300  Level FlightAware ADS-B
Fri 09:07:31 AM 41.9690 -87.3860 285° West 247 284 5,300  Level FlightAware ADS-B
Fri 09:07:56 AM 41.9690 -87.4230 270° West 244 281 5,300  Level FlightAware ADS-B
Fri 09:08:31 AM 41.9690 -87.4740 270° West 218 251 5,300  Level FlightAware ADS-B
Fri 09:08:56 AM 41.9690 -87.5050 270° West 202 232 5,300  Level FlightAware ADS-B
Fri 09:09:26 AM 41.9690 -87.5420 270° West 204 235 5,300  Level FlightAware ADS-B
Fri 09:09:41 AM 41.9690 -87.5610 270° West 204 235 5,300  Level FlightAware ADS-B
Fri 09:10:06 AM 41.9690 -87.5920 270° West 203 234 5,300 -545 Level FlightAware ADS-B
Fri 09:10:36 AM 41.9690 -87.6310 270° West 199 229 4,800 -960 Descending FlightAware ADS-B
Fri 09:10:56 AM 41.9690 -87.6510 270° West 184 212 4,500 -982 Descending FlightAware ADS-B
Fri 09:11:31 AM 41.9690 -87.6900 270° West 171 197 3,900 -1,015 Descending FlightAware ADS-B
Fri 09:12:01 AM 41.9690 -87.7230 270° West 166 191 3,400 -960 Descending FlightAware ADS-B
Fri 09:12:21 AM 41.9690 -87.7410 270° West 158 182 3,100 -900 Descending FlightAware ADS-B
Fri 09:12:41 AM 41.9690 -87.7610 270° West 154 177 2,800 -840 Descending FlightAware ADS-B
Fri 09:13:11 AM 41.9690 -87.7900 270° West 147 169 2,400 -764 Descending FlightAware ADS-B
Fri 09:13:36 AM 41.9690 -87.8110 270° West 137 158 2,100 -764 Descending FlightAware ADS-B
Fri 09:14:06 AM 41.9690 -87.8360 270° West 139 160 1,700 -840 Descending FlightAware ADS-B
Fri 09:14:26 AM 41.9690 -87.8540 270° West 141 162 1,400 -873 Descending FlightAware ADS-B
Fri 09:15:01 AM 41.9690 -87.8860 270° West 143 165 900 -500 Descending FlightAware ADS-B
Fri 09:15:26 AM 41.9690 -87.9050 270° West 143 165 900  Level FlightAware ADS-B

Login

Don't have an account? Register now (free) for customized features, flight alerts, and more!